Time;durP1;ratioP1;P1;durP2;ratioP2;P2;SDS_P1;SDS_P2;PMS_P1;PMS_P2;Temp;Humidity;BMP_temperature;BMP_pressure;BME280_temperature;BME280_humidity;BME280_pressure;Samples;Min_cycle;Max_cycle;Signal;HPM_P1;HPM_P2
2023/01/04 14:51:55;;;;;;;3.03;2.78;;;12.20;88.60;;;10.62;79.27;100319.44;5062066;27;20433;-70
2023/01/04 14:54:22;;;;;;;2.35;2.15;;;11.10;91.90;;;10.64;79.68;100317.56;5019154;28;20402;-70
2023/01/04 14:56:48;;;;;;;1.75;1.60;;;11.00;92.00;;;10.61;80.00;100328.31;5002401;28;20407;-70
2023/01/04 14:59:14;;;;;;;2.00;1.90;;;10.90;92.50;;;10.62;79.95;100314.16;4986305;28;20396;-70
2023/01/04 15:01:42;;;;;;;1.93;1.73;;;10.90;92.20;;;10.62;80.10;100316.78;5006467;28;20510;-69
2023/01/04 15:04:08;;;;;;;1.80;1.70;;;10.90;92.40;;;10.59;80.66;100316.97;4988211;28;59198;-70
2023/01/04 15:06:34;;;;;;;2.60;2.40;;;10.90;92.50;;;10.65;80.35;100330.66;5004363;28;20409;-69
2023/01/04 15:09:00;;;;;;;3.90;3.50;;;10.90;92.50;;;10.61;80.46;100326.50;4978496;28;20412;-69
2023/01/04 15:11:27;;;;;;;10.63;9.63;;;10.90;92.50;;;10.61;80.08;100341.53;4996977;28;20444;-70
2023/01/04 15:17:58;;;;;;;6.50;5.90;;;10.90;92.50;;;10.87;78.69;100337.28;5085298;28;20875;-70
2023/01/04 15:20:25;;;;;;;4.40;4.00;;;11.10;91.80;;;10.88;78.20;100337.19;5064696;28;20407;-70
2023/01/04 15:22:52;;;;;;;3.80;3.50;;;11.10;91.70;;;10.96;77.80;100334.13;5049105;28;20205;-70
2023/01/04 15:25:21;;;;;;;4.23;2.70;;;11.20;91.30;;;11.00;77.24;100320.59;5030955;28;20201;-67
2023/01/04 15:27:49;;;;;;;4.33;3.20;;;11.30;91.20;;;11.12;76.44;100323.44;5066220;28;20225;-69
2023/01/04 15:30:16;;;;;;;8.93;7.83;;;11.30;90.70;;;11.10;76.47;100317.38;5065204;28;20216;-69
2023/01/04 15:32:43;;;;;;;9.13;5.77;;;11.30;90.60;;;11.19;75.88;100324.75;5065045;28;20208;-70
2023/01/04 15:35:14;;;;;;;8.00;4.57;;;11.40;90.40;;;11.16;75.57;100309.91;5016329;28;20217;-69
2023/01/04 15:37:47;;;;;;;3.53;3.23;;;11.40;90.60;;;11.27;75.12;100330.41;5048688;28;20240;-69
2023/01/04 15:40:15;;;;;;;5.83;3.30;;;11.40;90.00;;;11.28;74.92;100316.22;5048425;28;20255;-68
2023/01/04 15:42:57;;;;;;;7.50;3.80;;;11.50;89.60;;;11.31;74.51;100326.59;5065173;28;20209;-69
2023/01/04 15:45:35;;;;;;;4.60;2.83;;;11.50;89.20;;;11.22;75.22;100321.91;5036684;28;20212;-69
2023/01/04 15:48:06;;;;;;;4.33;2.57;;;11.50;89.40;;;11.30;74.22;100306.38;5048661;28;20225;-69
2023/01/04 15:50:35;;;;;;;7.07;2.90;;;11.50;89.00;;;11.34;74.22;100331.69;5016205;28;20206;-70
2023/01/04 15:53:06;;;;;;;8.00;3.40;;;11.50;88.60;;;11.33;74.10;100312.34;5032218;28;20488;-70
2023/01/04 15:55:34;;;;;;;5.20;2.80;;;11.60;88.60;;;11.38;73.58;100320.81;5031752;28;20680;-69
2023/01/04 15:58:05;;;;;;;5.63;2.63;;;11.60;88.20;;;11.39;73.47;100322.53;5016716;28;20229;-69
2023/01/04 16:00:33;;;;;;;7.20;2.80;;;11.60;88.00;;;11.41;73.91;100325.06;5066295;28;20198;-70
2023/01/04 16:03:00;;;;;;;4.37;2.63;;;11.60;88.00;;;11.37;73.84;100327.06;5032210;28;20225;-70
2023/01/04 16:05:27;;;;;;;6.00;2.93;;;11.60;88.20;;;11.32;74.23;100337.09;5064696;28;20596;-70
2023/01/04 16:07:53;;;;;;;5.37;2.80;;;11.50;88.60;;;11.38;73.76;100335.84;5048114;28;20228;-70
2023/01/04 16:10:20;;;;;;;4.40;2.50;;;11.60;88.50;;;11.38;74.10;100322.63;5043746;28;20205;-71
2023/01/04 16:12:47;;;;;;;4.27;2.87;;;11.60;88.20;;;11.34;73.86;100339.66;5064642;28;20584;-69
2023/01/04 16:15:26;;;;;;;4.97;2.70;;;11.50;88.50;;;11.36;73.81;100327.16;5063779;28;20212;-70
2023/01/04 16:17:52;;;;;;;6.13;3.33;;;11.60;88.50;;;11.35;73.98;100325.47;5083550;28;20220;-69
2023/01/04 16:20:19;;;;;;;5.33;3.77;;;11.50;88.40;;;11.44;73.58;100313.44;5084772;28;20588;-70
2023/01/04 16:22:46;;;;;;;6.40;3.30;;;11.60;88.10;;;11.41;73.85;100318.94;5084316;28;20205;-69
2023/01/04 16:25:13;;;;;;;13.23;8.20;;;11.60;88.30;;;11.46;73.23;100312.44;5084754;28;20198;-69
2023/01/04 16:27:40;;;;;;;5.20;2.90;;;11.60;88.00;;;11.41;73.63;100306.56;5080050;28;20225;-70
2023/01/04 16:30:11;;;;;;;7.10;3.08;;;11.70;87.90;;;11.42;73.38;100316.19;5036343;28;20806;-69
2023/01/04 16:32:43;;;;;;;8.73;3.45;;;11.70;87.90;;;11.49;73.15;100306.94;5070149;28;20418;-69
2023/01/04 16:35:12;;;;;;;7.33;3.27;;;11.70;87.50;;;11.46;73.17;100307.13;5069916;28;20407;-70
2023/01/04 16:37:42;;;;;;;7.95;3.10;;;11.60;87.70;;;11.47;73.05;100308.84;5052824;28;20779;-69
2023/01/04 16:40:09;;;;;;;7.80;3.08;;;11.70;87.70;;;11.45;73.03;100294.00;5053420;28;20395;-69
2023/01/04 16:42:37;;;;;;;7.57;3.38;;;11.60;87.40;;;11.39;73.41;100295.22;5069311;28;20404;-70
2023/01/04 16:45:04;;;;;;;8.75;3.67;;;11.60;88.50;;;11.54;72.18;100294.25;5052974;28;20406;-70
2023/01/04 16:47:39;;;;;;;9.63;3.42;;;11.70;87.20;;;11.48;72.80;100301.75;5064495;28;20415;-69
2023/01/04 16:50:08;;;;;;;11.57;5.95;;;11.70;87.20;;;11.54;72.57;100296.91;5044929;28;20411;-69
2023/01/04 16:56:14;;;;;;;6.80;2.90;;;11.70;86.90;;;11.54;72.73;100285.47;5020861;28;20436;-70
2023/01/04 16:58:43;;;;;;;9.57;3.38;;;11.70;87.00;;;11.59;72.30;100276.28;5045265;28;20402;-71
2023/01/04 17:01:13;;;;;;;7.97;3.20;;;11.80;86.40;;;11.69;71.74;100281.81;5026993;28;20445;-70
2023/01/04 17:03:42;;;;;;;7.72;3.00;;;11.80;86.30;;;11.65;71.84;100277.66;5045305;28;21083;-70
2023/01/04 17:06:12;;;;;;;6.88;3.05;;;11.80;86.20;;;11.66;71.97;100272.28;5045093;28;20406;-70
2023/01/04 17:08:40;;;;;;;8.10;3.40;;;11.90;86.50;;;11.69;72.25;100271.22;5044771;28;20774;-70
2023/01/04 17:11:09;;;;;;;6.20;3.07;;;11.80;86.50;;;11.56;72.54;100259.75;5038529;28;20414;-70
2023/01/04 17:13:59;;;;;;;5.40;3.13;;;11.80;87.60;;;11.57;72.77;100261.44;5040612;28;20415;-71
2023/01/04 17:16:27;;;;;;;7.35;3.00;;;11.80;87.00;;;11.58;72.52;100252.56;5044927;28;20422;-70
2023/01/04 17:19:02;;;;;;;7.70;3.00;;;11.90;86.70;;;11.57;72.49;100249.06;5045101;28;20406;-70
2023/01/04 17:21:30;;;;;;;8.20;3.20;;;11.70;86.70;;;11.62;72.27;100270.78;5044713;28;20417;-71
2023/01/04 17:24:02;;;;;;;6.43;3.20;;;11.90;86.60;;;11.63;72.09;100255.75;5045125;28;20464;-71
2023/01/04 17:26:31;;;;;;;7.03;3.28;;;11.80;86.20;;;11.66;71.78;100269.63;5044520;28;20445;-70
2023/01/04 17:29:01;;;;;;;8.27;3.33;;;11.90;86.00;;;11.76;71.09;100255.78;5044815;28;20442;-70
2023/01/04 17:31:31;;;;;;;9.07;3.28;;;11.90;85.30;;;11.77;71.09;100238.94;5044879;28;20413;-70
2023/01/04 17:33:59;;;;;;;5.73;3.00;;;11.90;85.20;;;11.75;71.66;100254.09;5041859;28;20469;-70
2023/01/04 17:36:27;;;;;;;7.13;3.15;;;12.00;85.40;;;11.72;71.77;100249.00;5044385;28;20752;-69
2023/01/04 17:38:56;;;;;;;5.13;2.63;;;11.90;85.70;;;11.73;71.63;100259.47;5044839;28;20411;-69
2023/01/04 17:41:25;;;;;;;4.38;2.28;;;11.90;85.70;;;11.74;71.59;100242.63;5043243;28;20413;-69
2023/01/04 17:43:56;;;;;;;7.63;2.95;;;11.90;85.70;;;11.77;71.67;100257.47;5044236;28;20398;-69
2023/01/04 17:46:26;;;;;;;6.60;3.63;;;11.90;85.70;;;11.80;71.25;100257.31;5043177;28;20409;-69
2023/01/04 17:48:54;;;;;;;5.80;2.50;;;12.00;85.50;;;11.74;71.81;100273.56;5044444;28;20475;-69
2023/01/04 17:51:44;;;;;;;6.43;2.58;;;12.00;85.70;;;11.79;71.62;100269.69;5044221;28;20771;-69
2023/01/04 17:54:12;;;;;;;6.88;3.30;;;11.90;85.90;;;11.69;72.52;100253.53;5047996;28;20431;-69
2023/01/04 17:56:40;;;;;;;6.53;2.90;;;11.90;86.30;;;11.67;72.90;100249.28;5063794;28;20491;-69
2023/01/04 17:59:10;;;;;;;6.63;3.10;;;11.90;86.80;;;11.68;72.38;100258.94;5064405;28;20416;-69
2023/01/04 18:01:40;;;;;;;8.75;3.40;;;11.90;86.70;;;11.67;72.13;100263.38;5063804;28;20405;-69
2023/01/04 18:04:08;;;;;;;7.65;3.30;;;11.90;87.20;;;11.62;72.06;100265.47;5063885;28;20919;-70
2023/01/04 18:06:38;;;;;;;8.65;4.20;;;11.80;86.30;;;11.67;71.11;100271.31;5055788;28;20739;-70
2023/01/04 18:09:08;;;;;;;8.23;4.53;;;11.80;85.50;;;11.67;70.73;100252.78;5049886;28;20455;-70
2023/01/04 18:11:37;;;;;;;7.77;4.00;;;11.80;84.80;;;11.63;70.83;100269.81;5050763;28;20460;-70
2023/01/04 18:14:05;;;;;;;9.40;4.80;;;11.80;84.90;;;11.74;68.98;100262.97;5050374;28;20424;-70
2023/01/04 18:16:55;;;;;;;8.10;3.83;;;11.90;82.90;;;11.80;68.13;100247.56;5050050;28;20428;-68
2023/01/04 18:19:25;;;;;;;10.60;3.83;;;12.00;82.20;;;11.85;67.68;100256.03;5050348;28;20474;-68
2023/01/04 18:21:53;;;;;;;8.07;3.72;;;12.00;80.90;;;11.97;66.98;100243.81;5050476;28;20416;-69
2023/01/04 18:24:22;;;;;;;12.10;5.20;;;12.10;80.40;;;11.89;67.25;100251.41;5050429;28;20412;-69
2023/01/04 18:27:06;;;;;;;10.32;3.60;;;12.10;80.40;;;12.05;65.29;100251.25;5029891;28;20484;-69
2023/01/04 18:29:53;;;;;;;11.50;4.40;;;12.20;78.90;;;11.98;65.63;100256.94;5030705;28;20461;-70
2023/01/04 18:32:23;;;;;;;9.90;3.93;;;12.20;79.10;;;11.89;66.36;100257.53;5030341;28;20407;-70
2023/01/04 18:34:51;;;;;;;7.95;3.28;;;12.10;79.20;;;11.77;67.43;100250.38;5030390;28;20461;-70
2023/01/04 18:37:19;;;;;;;8.82;4.00;;;12.00;80.50;;;11.72;68.21;100247.19;5030090;28;20407;-70
2023/01/04 18:39:47;;;;;;;8.20;3.53;;;12.00;81.50;;;11.66;69.13;100251.09;5039983;28;20406;-69
2023/01/04 18:42:16;;;;;;;11.60;4.97;;;11.90;82.50;;;11.66;68.91;100253.75;5050022;28;20421;-69
2023/01/04 18:44:44;;;;;;;35.50;19.77;;;11.80;82.90;;;11.68;69.16;100266.88;5050190;28;20630;-69
2023/01/04 18:47:17;;;;;;;8.98;4.55;;;11.90;83.00;;;11.78;68.88;100261.84;5049848;28;20441;-69
2023/01/04 18:49:46;;;;;;;11.70;6.45;;;11.90;82.90;;;11.70;69.15;100259.69;5050273;28;20397;-70
2023/01/04 18:52:14;;;;;;;12.27;7.03;;;11.90;83.20;;;11.64;69.78;100250.34;5050471;28;20405;-70
2023/01/04 18:54:43;;;;;;;10.13;5.07;;;11.90;83.70;;;11.65;70.29;100252.03;5050164;28;20405;-70
2023/01/04 18:57:11;;;;;;;31.52;22.48;;;11.90;84.00;;;11.61;70.57;100226.72;5050404;28;20420;-70
2023/01/04 18:59:40;;;;;;;17.67;10.10;;;11.80;84.30;;;11.56;70.56;100234.13;5050189;28;20928;-70
2023/01/04 19:02:10;;;;;;;9.45;4.90;;;11.80;84.70;;;11.57;70.20;100227.88;5050007;28;20472;-70
2023/01/04 19:04:38;;;;;;;5.57;3.27;;;11.80;84.40;;;11.73;68.76;100240.09;5050235;28;20402;-69
2023/01/04 19:07:08;;;;;;;9.35;4.88;;;11.90;83.00;;;11.64;69.22;100237.13;5049319;28;20405;-67
2023/01/04 19:09:36;;;;;;;9.30;4.25;;;11.90;82.80;;;11.74;68.89;100233.84;5049514;28;20405;-70
2023/01/04 19:12:04;;;;;;;9.32;5.18;;;11.90;82.90;;;11.73;68.88;100235.66;5049522;28;20500;-70
2023/01/04 19:14:33;;;;;;;9.47;5.20;;;11.90;82.70;;;11.65;69.30;100237.97;5049575;28;21121;-70
2023/01/04 19:17:01;;;;;;;9.45;4.40;;;11.90;82.90;;;11.60;69.62;100222.38;5048802;28;20460;-70
2023/01/04 19:19:29;;;;;;;12.45;5.78;;;11.80;83.40;;;11.68;68.82;100217.44;5049008;28;20405;-70
2023/01/04 19:21:57;;;;;;;10.65;5.25;;;11.90;83.10;;;11.75;68.96;100223.16;5049573;28;20420;-70
2023/01/04 19:24:26;;;;;;;9.50;4.55;;;11.90;82.50;;;11.70;69.02;100231.41;5049334;28;20416;-70
2023/01/04 19:27:01;;;;;;;9.27;4.25;;;11.90;82.70;;;11.68;68.91;100220.06;5048831;28;20963;-70
2023/01/04 19:29:29;;;;;;;13.15;5.93;;;11.90;82.80;;;11.69;68.89;100213.81;5049057;28;20406;-70
2023/01/04 19:31:57;;;;;;;14.80;5.43;;;11.90;82.60;;;11.68;69.05;100214.78;5048812;28;20500;-70
2023/01/04 19:34:26;;;;;;;11.43;4.45;;;11.90;82.70;;;11.77;68.21;100228.34;5049300;28;20411;-69
2023/01/04 19:36:54;;;;;;;13.18;6.13;;;11.90;81.90;;;11.74;68.57;100226.75;5048406;28;20424;-69
2023/01/04 19:39:22;;;;;;;13.05;4.90;;;11.90;82.10;;;11.72;68.31;100233.09;5049314;28;20412;-69
2023/01/04 19:41:51;;;;;;;10.20;3.93;;;11.90;82.10;;;11.68;68.78;100222.72;5049172;28;20401;-70
2023/01/04 19:44:19;;;;;;;15.90;7.80;;;11.90;82.30;;;11.66;68.26;100219.31;5048631;28;20413;-70
2023/01/04 19:46:47;;;;;;;9.18;3.97;;;11.90;82.10;;;11.71;68.45;100219.03;5048450;28;20405;-69
2023/01/04 19:49:16;;;;;;;13.63;4.55;;;11.90;82.10;;;11.64;68.87;100217.72;5048669;28;20739;-69
2023/01/04 19:51:45;;;;;;;14.48;8.10;;;11.80;82.40;;;11.66;69.10;100224.63;5048554;28;20770;-70
2023/01/04 19:54:14;;;;;;;11.55;5.10;;;11.80;82.60;;;11.62;69.42;100211.69;5048744;28;20435;-69
2023/01/04 19:56:51;;;;;;;11.82;3.92;;;11.80;83.00;;;11.60;69.38;100221.53;5047773;28;20425;-70
2023/01/04 19:59:19;;;;;;;10.40;4.65;;;11.80;82.90;;;11.54;69.65;100220.16;5048413;28;20401;-70
2023/01/04 20:01:47;;;;;;;11.40;4.00;;;11.80;83.20;;;11.55;69.35;100219.19;5048409;28;20408;-70
2023/01/04 20:04:16;;;;;;;9.25;3.78;;;11.80;83.40;;;11.56;69.70;100207.66;5048284;28;20433;-69
2023/01/04 20:06:44;;;;;;;9.45;3.60;;;11.80;83.40;;;11.65;69.44;100217.63;5048075;28;20765;-69
2023/01/04 20:09:12;;;;;;;10.45;3.85;;;11.80;83.60;;;11.55;70.00;100216.53;5047472;28;20410;-69
2023/01/04 20:11:40;;;;;;;11.57;4.45;;;11.80;83.90;;;11.49;70.50;100224.88;5048314;28;20409;-69
2023/01/04 20:14:09;;;;;;;12.38;4.10;;;11.70;84.10;;;11.50;70.55;100220.44;5048498;28;20401;-69
2023/01/04 20:16:37;;;;;;;11.60;4.87;;;11.70;84.50;;;11.42;71.58;100228.84;5047484;28;20426;-69
2023/01/04 20:19:06;;;;;;;9.25;3.70;;;11.70;85.40;;;11.36;72.08;100253.06;5047985;28;20451;-70
2023/01/04 20:21:34;;;;;;;8.63;3.70;;;11.60;87.00;;;11.33;72.28;100238.25;5048005;28;20462;-70
2023/01/04 20:24:02;;;;;;;10.77;3.77;;;11.60;86.60;;;11.30;72.68;100227.00;5048034;28;20985;-70
2023/01/04 20:26:30;;;;;;;11.77;4.18;;;11.50;86.60;;;11.27;73.15;100219.28;5047729;28;20436;-70
2023/01/04 20:28:58;;;;;;;9.57;4.43;;;11.50;88.00;;;11.20;72.94;100218.81;5047891;28;20413;-70
2023/01/04 20:31:28;;;;;;;12.57;4.47;;;11.50;87.20;;;11.26;72.60;100225.50;5047962;28;20924;-70
2023/01/04 20:33:56;;;;;;;11.10;3.72;;;11.40;86.90;;;11.28;72.13;100234.19;5047830;28;20420;-70
2023/01/04 20:36:28;;;;;;;12.98;4.07;;;11.50;86.40;;;11.24;72.90;100238.00;5047526;28;20421;-70
2023/01/04 20:38:56;;;;;;;13.20;4.15;;;11.50;86.80;;;11.18;73.32;100243.69;5048267;28;20404;-71
2023/01/04 20:41:25;;;;;;;12.13;3.85;;;11.40;87.70;;;11.22;73.09;100239.88;5047900;28;20428;-68
2023/01/04 20:43:52;;;;;;;11.32;4.40;;;11.40;87.50;;;11.22;73.19;100237.25;5047856;28;20413;-70
2023/01/04 20:46:22;;;;;;;14.77;4.38;;;11.40;87.60;;;11.23;72.39;100228.34;5047223;28;20911;-70
2023/01/04 20:48:52;;;;;;;17.50;4.07;;;11.40;86.40;;;11.25;71.82;100229.97;5047864;28;20400;-69
2023/01/04 20:51:22;;;;;;;11.88;3.85;;;11.50;86.40;;;11.21;72.51;100243.47;5047755;28;20777;-69
2023/01/04 20:53:50;;;;;;;17.33;4.53;;;11.40;86.60;;;11.21;72.13;100246.97;5047550;28;20409;-70
2023/01/04 20:56:20;;;;;;;13.27;4.60;;;11.40;86.80;;;11.24;71.80;100243.28;5047481;28;20421;-70
2023/01/04 20:58:49;;;;;;;14.93;4.90;;;11.40;86.30;;;11.24;71.67;100232.69;5047718;28;20408;-70
2023/01/04 21:01:18;;;;;;;14.73;5.22;;;11.40;86.10;;;11.25;71.63;100221.16;5047713;28;20412;-70
2023/01/04 21:03:46;;;;;;;15.77;5.17;;;11.40;85.80;;;11.26;70.94;100210.50;5048036;28;20412;-70
2023/01/04 21:06:17;;;;;;;16.15;4.35;;;11.40;85.40;;;11.36;69.68;100248.63;5047527;28;20512;-69
2023/01/04 21:08:46;;;;;;;15.77;4.90;;;11.60;84.10;;;11.41;69.43;100243.03;5047042;28;20448;-69
2023/01/04 21:11:14;;;;;;;16.67;6.43;;;11.60;83.70;;;11.45;69.70;100246.38;5047555;28;20801;-70
2023/01/04 21:13:42;;;;;;;16.77;5.30;;;11.60;83.90;;;11.43;69.70;100243.78;5047794;28;20416;-70
2023/01/04 21:16:11;;;;;;;20.38;6.68;;;11.60;83.40;;;11.38;69.70;100254.66;5047504;28;20409;-70
2023/01/04 21:18:39;;;;;;;18.10;8.88;;;11.60;83.50;;;11.26;69.92;100274.00;5047652;28;20509;-70
2023/01/04 21:21:08;;;;;;;14.80;4.80;;;11.50;83.90;;;11.33;69.56;100261.22;5047578;28;20411;-70
2023/01/04 21:23:39;;;;;;;17.80;5.90;;;11.50;83.70;;;11.30;69.84;100264.06;5047838;28;20407;-69
2023/01/04 21:26:07;;;;;;;20.50;9.38;;;11.50;83.60;;;11.31;70.46;100249.88;5046326;28;20457;-69
2023/01/04 21:28:36;;;;;;;19.30;7.68;;;11.50;84.20;;;11.22;71.38;100279.56;5047488;28;20409;-70
2023/01/04 21:31:10;;;;;;;17.35;5.30;;;11.50;85.30;;;11.05;72.91;100281.50;5048626;28;20401;-70
2023/01/04 21:33:38;;;;;;;18.23;6.88;;;11.30;86.70;;;10.93;73.07;100274.34;5050301;28;20416;-70
2023/01/04 21:36:11;;;;;;;24.70;10.90;;;11.20;87.00;;;10.86;72.94;100273.00;5048178;28;20409;-70
2023/01/04 21:38:41;;;;;;;23.20;8.87;;;11.20;87.10;;;10.75;74.32;100288.66;5049270;28;20405;-70
2023/01/04 21:41:10;;;;;;;26.40;10.73;;;11.10;88.40;;;10.70;74.56;100280.16;5049146;28;20413;-70
2023/01/04 21:43:38;;;;;;;21.98;7.70;;;11.00;89.20;;;10.75;74.76;100286.03;5052831;28;20760;-70
2023/01/04 21:46:07;;;;;;;27.20;12.38;;;11.00;89.60;;;10.62;75.25;100290.38;5052329;28;20405;-70
2023/01/04 21:48:36;;;;;;;14.35;4.80;;;10.90;89.50;;;10.64;74.04;100291.13;5052415;28;20942;-70
2023/01/04 21:51:05;;;;;;;11.52;3.67;;;10.90;88.90;;;10.60;74.41;100287.81;5051259;28;20405;-71
2023/01/04 21:53:34;;;;;;;8.43;2.75;;;10.80;88.90;;;10.43;74.44;100280.91;5051336;28;20409;-71
2023/01/04 21:56:05;;;;;;;9.55;2.90;;;10.80;88.80;;;10.35;74.75;100285.78;5050842;28;20886;-71
2023/01/04 21:58:33;;;;;;;10.13;3.28;;;10.60;89.00;;;10.24;75.07;100288.22;5051060;28;20428;-71
2023/01/04 22:01:01;;;;;;;10.55;3.03;;;10.50;89.70;;;10.28;74.82;100279.16;5051451;28;20416;-71
2023/01/04 22:03:29;;;;;;;11.65;3.28;;;10.60;89.70;;;10.28;75.30;100286.25;5051293;28;20404;-71
2023/01/04 22:06:01;;;;;;;12.10;3.42;;;10.50;90.00;;;10.28;75.84;100294.16;5050817;28;20416;-70
2023/01/04 22:08:30;;;;;;;14.00;4.05;;;10.50;90.10;;;10.29;76.10;100285.31;5050754;28;20401;-71
2023/01/04 22:10:58;;;;;;;13.57;4.07;;;10.60;90.30;;;10.30;75.80;100284.34;5050526;28;20401;-70
2023/01/04 22:13:28;;;;;;;11.80;3.83;;;10.60;90.30;;;10.29;75.41;100283.50;5051176;28;20412;-69
2023/01/04 22:15:56;;;;;;;15.27;4.20;;;10.50;90.10;;;10.25;75.91;100289.91;5050915;28;20413;-69
2023/01/04 22:18:24;;;;;;;15.30;4.13;;;10.50;90.30;;;10.23;76.16;100291.81;5051085;28;20444;-69
2023/01/04 22:21:03;;;;;;;13.85;4.28;;;10.50;90.40;;;10.24;76.13;100298.78;5050899;28;20428;-70
2023/01/04 22:23:31;;;;;;;13.38;4.60;;;10.50;90.40;;;10.32;75.45;100291.25;5051041;28;20420;-70
2023/01/04 22:26:00;;;;;;;12.68;4.53;;;10.60;90.20;;;10.32;75.05;100290.41;5050620;28;20408;-70
2023/01/04 22:28:29;;;;;;;17.77;7.00;;;10.60;90.00;;;10.30;75.12;100285.22;5050605;28;20401;-70
2023/01/04 22:31:05;;;;;;;15.40;5.70;;;10.50;90.20;;;10.28;74.82;100268.59;5050847;28;20398;-70
2023/01/04 22:33:34;;;;;;;16.15;6.25;;;10.60;89.60;;;10.30;74.62;100287.84;5050346;28;20496;-69
2023/01/04 22:36:04;;;;;;;13.80;5.35;;;10.60;89.60;;;10.33;74.49;100287.66;5049935;28;20885;-69
2023/01/04 22:38:34;;;;;;;18.52;6.55;;;10.60;89.60;;;10.37;74.40;100288.34;5050421;28;20460;-69
2023/01/04 22:41:06;;;;;;;18.67;5.80;;;10.60;89.30;;;10.46;73.21;100303.66;5050218;28;20878;-69
2023/01/04 22:43:36;;;;;;;18.52;5.78;;;10.60;88.30;;;10.48;72.96;100285.94;5050277;28;20888;-69
2023/01/04 22:46:06;;;;;;;16.35;5.30;;;10.70;87.70;;;10.45;72.86;100295.81;5049776;28;20401;-69
2023/01/04 22:48:34;;;;;;;16.90;5.30;;;10.70;87.50;;;10.44;73.15;100294.97;5050260;28;20440;-70
2023/01/04 22:51:06;;;;;;;15.15;5.10;;;10.70;87.70;;;10.46;72.72;100289.59;5050397;28;20405;-70
2023/01/04 22:53:34;;;;;;;13.27;4.72;;;10.70;87.50;;;10.43;73.51;100273.00;5050139;28;20440;-70
2023/01/04 22:56:06;;;;;;;14.57;4.00;;;10.70;87.70;;;10.52;72.80;100302.44;5049543;28;20412;-69
2023/01/04 22:58:53;;;;;;;15.75;4.22;;;10.80;87.50;;;10.54;72.61;100329.63;5049482;28;20425;-70
2023/01/04 23:01:23;;;;;;;12.75;3.50;;;10.80;87.50;;;10.54;72.62;100322.53;5049957;28;20870;-70
2023/01/04 23:03:51;;;;;;;12.57;3.83;;;10.80;87.20;;;10.47;73.31;100333.56;5049790;28;20508;-70
2023/01/04 23:06:19;;;;;;;15.45;3.90;;;10.70;87.60;;;10.48;73.78;100330.00;5049667;28;20398;-70
2023/01/04 23:08:48;;;;;;;13.68;3.78;;;10.70;88.10;;;10.40;74.07;100330.41;5049027;28;20405;-70
2023/01/04 23:11:17;;;;;;;16.63;4.43;;;10.70;88.60;;;10.40;74.06;100341.88;5049661;28;20437;-70
2023/01/04 23:13:46;;;;;;;13.17;3.67;;;10.70;88.70;;;10.50;73.68;100317.53;5049861;28;20447;-70
2023/01/04 23:16:16;;;;;;;14.48;3.92;;;10.70;88.40;;;10.40;73.74;100315.44;5049100;28;20405;-70
2023/01/04 23:18:44;;;;;;;15.15;3.80;;;10.70;88.30;;;10.39;73.95;100316.38;5049363;28;20988;-70
2023/01/04 23:21:15;;;;;;;13.25;4.25;;;10.60;88.60;;;10.42;73.79;100305.63;5049518;28;20426;-70
2023/01/04 23:23:43;;;;;;;14.75;4.07;;;10.70;88.30;;;10.42;73.75;100312.72;5049207;28;20766;-70
2023/01/04 23:26:14;;;;;;;13.80;4.18;;;10.70;88.20;;;10.57;73.20;100317.06;5049173;28;20408;-70
2023/01/04 23:28:42;;;;;;;17.45;4.80;;;10.80;88.00;;;10.42;73.63;100312.72;5049552;28;20406;-70
2023/01/04 23:31:12;;;;;;;17.58;4.53;;;10.70;88.20;;;10.42;73.61;100313.56;5049245;28;20407;-70
2023/01/04 23:33:42;;;;;;;17.40;4.50;;;10.70;88.60;;;10.42;73.84;100318.84;5049083;28;20848;-70
2023/01/04 23:36:11;;;;;;;15.15;4.45;;;10.70;88.30;;;10.37;73.78;100322.69;5049007;28;20406;-70
2023/01/04 23:38:39;;;;;;;16.15;4.18;;;10.60;88.40;;;10.47;73.11;100318.56;5048883;28;20429;-70
2023/01/04 23:41:08;;;;;;;16.35;4.38;;;10.70;87.70;;;10.46;73.09;100316.03;5048764;28;20875;-70
2023/01/04 23:43:37;;;;;;;16.70;4.40;;;10.70;88.60;;;10.49;72.39;100315.84;5049172;28;20402;-70
2023/01/04 23:46:06;;;;;;;13.38;4.15;;;10.80;87.20;;;10.51;72.50;100319.25;5048483;28;20412;-70
2023/01/04 23:48:35;;;;;;;14.13;4.10;;;10.80;86.70;;;10.49;72.49;100321.13;5049189;28;20405;-70
2023/01/04 23:51:04;;;;;;;12.35;3.72;;;10.70;86.80;;;10.46;72.49;100326.59;5049098;28;20401;-70
2023/01/04 23:53:32;;;;;;;11.85;4.18;;;10.70;86.90;;;10.63;71.82;100326.44;5048678;28;20406;-70
2023/01/04 23:56:02;;;;;;;16.77;4.20;;;10.80;86.60;;;10.62;71.61;100327.38;5048302;28;20437;-70
2023/01/04 23:58:30;;;;;;;14.43;4.30;;;10.80;86.50;;;10.53;72.49;100327.91;5048590;28;20417;-69
